createdAt,value
2018-09-12T00:01:42.970Z,100600.22
2018-09-12T00:05:46.560Z,100598.05
2018-09-12T00:09:50.169Z,100595.77
2018-09-12T00:13:53.681Z,100593.61
2018-09-12T00:17:57.163Z,100588.33
2018-09-12T00:22:00.832Z,100584.89
2018-09-12T00:26:04.424Z,100576.49
2018-09-12T00:30:08.179Z,100579.28
2018-09-12T00:34:11.765Z,100571.79
2018-09-12T00:38:15.280Z,100572.30
2018-09-12T00:42:18.807Z,100578.19
2018-09-12T00:46:22.480Z,100576.95
2018-09-12T00:50:26.020Z,100577.95
2018-09-12T00:54:29.695Z,100573.14
2018-09-12T00:58:33.219Z,100580.33
2018-09-12T01:02:36.722Z,100579.94
2018-09-12T01:06:40.211Z,100585.78
2018-09-12T01:10:43.784Z,100593.94
2018-09-12T01:14:47.479Z,100595.74
2018-09-12T01:18:51.365Z,100598.95
2018-09-12T01:22:54.816Z,100590.59
2018-09-12T01:26:59.408Z,100591.99
2018-09-12T01:31:03.259Z,100593.48
2018-09-12T01:35:06.739Z,100586.44
2018-09-12T01:39:11.070Z,100585.16
2018-09-12T01:43:14.635Z,100587.13
2018-09-12T01:47:18.180Z,100586.37
2018-09-12T01:51:21.747Z,100587.34
2018-09-12T01:55:25.592Z,100581.27
2018-09-12T01:59:29.060Z,100584.53
2018-09-12T02:03:32.566Z,100590.43
2018-09-12T02:07:37.194Z,100586.98
2018-09-12T02:11:40.908Z,100579.95
2018-09-12T02:15:44.451Z,100576.08
2018-09-12T02:19:48.026Z,100578.95
2018-09-12T02:23:51.628Z,100579.53
2018-09-12T02:27:55.342Z,100572.53
2018-09-12T02:31:58.849Z,100571.73
2018-09-12T02:36:08.103Z,100573.13
2018-09-12T02:40:11.575Z,100578.03
2018-09-12T02:44:15.181Z,100574.02
2018-09-12T02:48:18.596Z,100571.84
2018-09-12T02:52:22.147Z,100564.79
2018-09-12T02:56:25.699Z,100565.73
2018-09-12T03:00:29.380Z,100566.77
2018-09-12T03:04:47.137Z,100563.77
2018-09-12T03:08:50.635Z,100570.95
2018-09-12T03:12:54.090Z,100563.89
2018-09-12T03:16:57.536Z,100560.44
2018-09-12T03:21:02.417Z,100566.28
2018-09-12T03:25:06.448Z,100567.74
2018-09-12T03:29:09.942Z,100569.17
2018-09-12T03:33:14.807Z,100579.02
2018-09-12T03:37:18.923Z,100576.81
2018-09-12T03:41:23.311Z,100580.81
2018-09-12T03:45:26.891Z,100574.16
2018-09-12T03:49:30.531Z,100580.45
2018-09-12T03:53:33.969Z,100579.13
2018-09-12T03:57:37.700Z,100587.61
2018-09-12T04:01:41.300Z,100586.34
2018-09-12T04:05:44.942Z,100585.52
2018-09-12T04:09:48.478Z,100585.52
2018-09-12T04:13:53.288Z,100590.41
2018-09-12T04:17:56.779Z,100590.03
2018-09-12T04:22:00.436Z,100598.52
2018-09-12T04:26:05.825Z,100599.43
2018-09-12T04:30:09.422Z,100599.94
2018-09-12T04:34:13.065Z,100593.75
2018-09-12T04:38:16.558Z,100596.05
2018-09-12T04:42:21.587Z,100592.94
2018-09-12T04:46:25.080Z,100600.09
2018-09-12T04:50:28.623Z,100591.23
2018-09-12T04:54:32.307Z,100597.91
2018-09-12T04:58:35.896Z,100598.77
2018-09-12T05:02:39.428Z,100604.13
2018-09-12T05:06:43.075Z,100593.94
2018-09-12T05:10:46.745Z,100598.41
2018-09-12T05:14:50.739Z,100597.00
2018-09-12T05:18:54.279Z,100602.71
2018-09-12T05:22:57.718Z,100591.98
2018-09-12T05:27:01.438Z,100601.75
2018-09-12T05:31:05.167Z,100596.87
2018-09-12T05:35:08.788Z,100584.91
2018-09-12T05:39:12.420Z,100592.92
2018-09-12T05:43:15.936Z,100586.23
2018-09-12T05:47:19.599Z,100583.94
2018-09-12T05:51:23.135Z,100569.23
2018-09-12T05:55:26.823Z,100566.45
2018-09-12T05:59:30.447Z,100567.22
2018-09-12T06:03:34.366Z,100568.02
2018-09-12T06:07:37.903Z,100564.88
2018-09-12T06:11:41.417Z,100570.14
2018-09-12T06:15:45.064Z,100568.66
2018-09-12T06:19:48.666Z,100574.77
2018-09-12T06:23:52.168Z,100572.39
2018-09-12T06:27:55.778Z,100568.67
2018-09-12T06:31:59.387Z,100567.61
2018-09-12T06:36:02.925Z,100568.33
2018-09-12T06:40:06.739Z,100568.09
2018-09-12T06:44:10.292Z,100571.78
2018-09-12T06:48:15.027Z,100563.05
2018-09-12T06:52:20.563Z,100559.80
2018-09-12T06:56:24.188Z,100557.34
2018-09-12T07:00:27.792Z,100562.45
2018-09-12T07:04:33.524Z,100563.94
2018-09-12T07:08:37.059Z,100569.86
2018-09-12T07:12:40.537Z,100566.09
2018-09-12T07:16:44.050Z,100563.22
2018-09-12T07:20:47.562Z,100562.74
2018-09-12T07:24:51.593Z,100569.84
2018-09-12T07:28:55.343Z,100572.84
2018-09-12T07:32:58.870Z,100568.73
2018-09-12T07:37:02.756Z,100561.61
2018-09-12T07:41:06.305Z,100565.39
2018-09-12T07:49:12.269Z,100570.66
2018-09-12T07:53:16.179Z,100559.66
2018-09-12T07:57:19.764Z,100560.23
2018-09-12T08:01:23.736Z,100568.93
2018-09-12T08:05:27.275Z,100571.75
2018-09-12T08:09:30.824Z,100570.88
2018-09-12T08:13:34.407Z,100575.61
2018-09-12T08:17:38.003Z,100580.44
2018-09-12T08:21:41.513Z,100574.70
2018-09-12T08:25:45.141Z,100571.26
2018-09-12T08:29:48.684Z,100571.06
2018-09-12T08:33:53.360Z,100575.71
2018-09-12T08:37:57.020Z,100568.29
2018-09-12T08:42:01.192Z,100559.14
2018-09-12T08:46:04.820Z,100559.59
2018-09-12T08:50:08.965Z,100553.81
2018-09-12T08:54:12.886Z,100553.48
2018-09-12T08:58:16.950Z,100553.97
2018-09-12T09:02:20.704Z,100554.69
2018-09-12T09:06:24.435Z,100546.34
2018-09-12T09:10:28.129Z,100543.75
2018-09-12T09:14:31.570Z,100539.48
2018-09-12T09:18:35.168Z,100538.27
2018-09-12T09:22:38.749Z,100530.33
2018-09-12T09:26:43.415Z,100523.77
2018-09-12T09:30:48.062Z,100524.61
2018-09-12T09:34:51.597Z,100519.92
2018-09-12T09:38:55.218Z,100518.48
2018-09-12T09:42:58.843Z,100512.39
2018-09-12T09:47:02.427Z,100505.45
2018-09-12T09:59:28.911Z,100498.84
2018-09-12T10:03:37.508Z,100494.46
2018-09-12T10:07:46.986Z,100492.52
2018-09-12T10:11:50.532Z,100490.57
2018-09-12T10:15:54.260Z,100478.16
2018-09-12T10:19:58.142Z,100476.48
2018-09-12T10:24:01.669Z,100478.05
2018-09-12T10:28:05.348Z,100475.44
2018-09-12T10:32:08.966Z,100475.17
2018-09-12T10:36:12.430Z,100466.02
2018-09-12T10:40:16.163Z,100454.52
2018-09-12T10:44:19.887Z,100452.97
2018-09-12T10:48:23.503Z,100451.08
2018-09-12T10:52:27.102Z,100449.20
2018-09-12T10:56:30.793Z,100441.06
2018-09-12T11:00:34.440Z,100432.23
2018-09-12T11:04:37.995Z,100425.89
2018-09-12T11:08:41.822Z,100430.30
2018-09-12T11:12:45.945Z,100427.63
2018-09-12T11:16:49.510Z,100417.59
2018-09-12T11:20:53.111Z,100407.52
2018-09-12T11:24:57.260Z,100409.66
2018-09-12T11:29:00.747Z,100399.01
2018-09-12T11:33:04.280Z,100396.03
2018-09-12T11:37:08.055Z,100387.53
2018-09-12T11:41:11.698Z,100377.55
2018-09-12T11:45:16.635Z,100368.94
2018-09-12T11:49:20.154Z,100360.92
2018-09-12T11:53:24.831Z,100367.69
2018-09-12T11:57:28.580Z,100354.98
2018-09-12T12:01:32.212Z,100353.05
2018-09-12T12:05:35.919Z,100348.16
2018-09-12T12:09:39.675Z,100349.98
2018-09-12T12:13:43.212Z,100346.12
2018-09-12T12:17:47.115Z,100340.40
2018-09-12T12:21:50.671Z,100336.30
2018-09-12T12:25:54.409Z,100339.27
2018-09-12T12:29:57.939Z,100331.99
2018-09-12T12:34:04.108Z,100329.55
2018-09-12T12:38:08.285Z,100324.12
2018-09-12T12:42:11.803Z,100307.53
2018-09-12T12:46:15.262Z,100296.37
2018-09-12T12:50:22.138Z,100297.67
2018-09-12T12:54:25.721Z,100286.32
2018-09-12T12:58:29.394Z,100274.81
2018-09-12T13:02:32.993Z,100270.73
2018-09-12T13:06:36.560Z,100260.83
2018-09-12T13:10:40.147Z,100256.30
2018-09-12T13:14:44.073Z,100248.91
2018-09-12T13:18:47.795Z,100235.58
2018-09-12T13:22:51.319Z,100240.41
2018-09-12T13:26:54.798Z,100238.16
2018-09-12T13:30:58.495Z,100233.83
2018-09-12T13:35:03.669Z,100231.51
2018-09-12T13:39:11.954Z,100226.59
2018-09-12T13:43:15.647Z,100228.09
2018-09-12T13:47:20.281Z,100226.55
2018-09-12T13:51:23.893Z,100221.46
2018-09-12T13:55:27.734Z,100219.50
2018-09-12T13:59:31.307Z,100221.46
2018-09-12T14:03:34.977Z,100218.95
2018-09-12T14:07:38.543Z,100205.48
2018-09-12T14:11:43.274Z,100200.27
2018-09-12T14:15:46.866Z,100185.94
2018-09-12T14:19:50.665Z,100181.22
2018-09-12T14:23:54.156Z,100175.25
2018-09-12T14:27:58.915Z,100180.78
2018-09-12T14:32:02.653Z,100166.66
2018-09-12T14:36:07.518Z,100161.55
2018-09-12T14:40:11.073Z,100164.50
2018-09-12T14:44:14.796Z,100161.20
2018-09-12T14:48:18.401Z,100157.45
2018-09-12T14:52:22.034Z,100153.48
2018-09-12T14:56:25.687Z,100144.19
2018-09-12T15:00:29.630Z,100139.11
2018-09-12T15:04:33.263Z,100128.17
2018-09-12T15:08:39.218Z,100134.80
2018-09-12T15:12:43.056Z,100138.70
2018-09-12T15:16:46.947Z,100133.09
2018-09-12T15:20:50.482Z,100125.20
2018-09-12T15:24:54.287Z,100120.94
2018-09-12T15:28:57.824Z,100117.31
2018-09-12T15:33:02.138Z,100107.73
2018-09-12T15:37:06.207Z,100115.20
2018-09-12T15:41:09.943Z,100102.81
2018-09-12T15:45:13.415Z,100094.52
2018-09-12T15:49:19.719Z,100088.80
2018-09-12T15:53:23.558Z,100080.02
2018-09-12T15:57:27.158Z,100082.56
2018-09-12T16:01:30.727Z,100074.84
2018-09-12T16:05:34.349Z,100068.77
2018-09-12T16:09:38.277Z,100065.39
2018-09-12T16:13:42.948Z,100060.77
2018-09-12T16:17:46.484Z,100062.06
2018-09-12T16:21:50.059Z,100055.78
2018-09-12T16:25:53.728Z,100057.07
2018-09-12T16:29:57.315Z,100052.94
2018-09-12T16:34:01.282Z,100054.19
2018-09-12T16:38:05.262Z,100051.02
2018-09-12T16:42:08.771Z,100046.98
2018-09-12T16:46:12.652Z,100053.28
2018-09-12T16:50:16.629Z,100058.48
2018-09-12T16:54:20.243Z,100058.41
2018-09-12T16:58:24.127Z,100056.97
2018-09-12T17:02:27.776Z,100051.84
2018-09-12T17:06:31.383Z,100061.73
2018-09-12T17:10:35.031Z,100055.53
2018-09-12T17:14:38.606Z,100059.20
2018-09-12T17:18:42.764Z,100057.45
2018-09-12T17:22:46.387Z,100054.36
2018-09-12T17:26:50.002Z,100056.75
2018-09-12T17:30:54.114Z,100062.66
2018-09-12T17:34:58.239Z,100066.21
2018-09-12T17:39:02.317Z,100067.06
2018-09-12T17:43:07.776Z,100069.84
2018-09-12T17:47:11.506Z,100065.26
2018-09-12T17:51:15.191Z,100069.79
2018-09-12T17:55:18.695Z,100077.56
2018-09-12T17:59:22.678Z,100081.40
2018-09-12T18:03:26.782Z,100086.95
2018-09-12T18:07:30.607Z,100090.66
2018-09-12T18:11:34.142Z,100092.64
2018-09-12T18:15:38.151Z,100103.53
2018-09-12T18:19:41.797Z,100093.44
2018-09-12T18:23:45.510Z,100103.17
2018-09-12T18:27:49.059Z,100098.38
2018-09-12T18:31:52.938Z,100098.20
2018-09-12T18:35:56.870Z,100092.84
2018-09-12T18:40:00.426Z,100092.20
2018-09-12T18:44:05.700Z,100097.78
2018-09-12T18:48:10.971Z,100087.58
2018-09-12T18:52:14.728Z,100096.12
2018-09-12T18:56:18.392Z,100088.53
2018-09-12T19:00:22.065Z,100082.97
2018-09-12T19:04:25.701Z,100095.58
2018-09-12T19:08:29.254Z,100095.80
2018-09-12T19:12:32.845Z,100087.16
2018-09-12T19:16:36.363Z,100086.59
2018-09-12T19:20:41.463Z,100094.28
2018-09-12T19:24:45.073Z,100104.08
2018-09-12T19:28:48.863Z,100099.39
2018-09-12T19:32:52.782Z,100100.02
2018-09-12T19:36:57.119Z,100101.92
2018-09-12T19:41:00.705Z,100089.57
2018-09-12T19:45:04.905Z,100097.23
2018-09-12T19:49:08.619Z,100095.66
2018-09-12T19:53:12.379Z,100090.11
2018-09-12T19:57:15.987Z,100091.77
2018-09-12T20:01:19.811Z,100084.53
2018-09-12T20:05:23.270Z,100076.12
2018-09-12T20:09:27.050Z,100085.96
2018-09-12T20:13:30.547Z,100082.61
2018-09-12T20:17:34.264Z,100070.27
2018-09-12T20:21:37.821Z,100068.81
2018-09-12T20:25:42.173Z,100085.91
2018-09-12T20:29:46.447Z,100086.20
2018-09-12T20:33:50.140Z,100083.88
2018-09-12T20:37:53.697Z,100085.11
2018-09-12T20:41:57.223Z,100095.06
2018-09-12T20:46:01.175Z,100087.29
2018-09-12T20:50:04.918Z,100087.55
2018-09-12T20:54:08.438Z,100091.39
2018-09-12T20:58:12.086Z,100092.06
2018-09-12T21:02:16.078Z,100094.63
2018-09-12T21:06:19.884Z,100092.31
2018-09-12T21:10:23.420Z,100099.63
2018-09-12T21:14:27.046Z,100091.05
2018-09-12T21:18:30.756Z,100087.64
2018-09-12T21:22:34.623Z,100087.09
2018-09-12T21:26:38.373Z,100092.19
2018-09-12T21:30:41.988Z,100090.55
2018-09-12T21:34:45.512Z,100080.84
2018-09-12T21:38:49.197Z,100082.77
2018-09-12T21:42:53.778Z,100077.11
2018-09-12T21:46:57.389Z,100073.30
2018-09-12T21:51:02.317Z,100068.17
2018-09-12T21:55:05.851Z,100057.67
2018-09-12T21:59:09.764Z,100073.23
2018-09-12T22:03:14.550Z,100081.63
2018-09-12T22:07:18.379Z,100077.61
2018-09-12T22:11:22.334Z,100068.03
2018-09-12T22:15:25.818Z,100064.60
2018-09-12T22:19:29.538Z,100061.31
2018-09-12T22:23:34.124Z,100057.94
2018-09-12T22:27:38.069Z,100060.73
2018-09-12T22:31:41.566Z,100049.42
2018-09-12T22:35:45.257Z,100045.18
2018-09-12T22:39:48.864Z,100044.01
2018-09-12T22:43:54.083Z,100029.91
2018-09-12T22:47:57.684Z,100045.59
2018-09-12T22:52:01.415Z,100054.55
2018-09-12T22:56:05.021Z,100047.79
2018-09-12T23:00:09.886Z,100044.94
2018-09-12T23:04:13.566Z,100052.73
2018-09-12T23:08:17.198Z,100056.98
2018-09-12T23:12:20.955Z,100059.09
2018-09-12T23:16:24.600Z,100056.04
2018-09-12T23:20:28.138Z,100063.83
2018-09-12T23:24:31.870Z,100064.55
2018-09-12T23:28:35.363Z,100063.03
2018-09-12T23:32:38.980Z,100042.72
2018-09-12T23:36:42.479Z,100044.63
2018-09-12T23:40:46.118Z,100046.98
2018-09-12T23:44:49.829Z,100045.73
2018-09-12T23:48:53.404Z,100050.80
2018-09-12T23:52:57.320Z,100046.58
2018-09-12T23:57:00.945Z,100050.92
